• Join FlightAware (Why Join?)
  • Login
  • US Flag 
09:18AM EDT


 

Airport Tracker/Info


-or-


 

Live Flight TrackerFlight Track Log ✈ N6ZQ ✈ 04-Jan-2014 ✈ KLCQ - 42J

Flight Track Log - Related Links

Times and Time Zones

All times are in EST time to prevent confusion due to time zone crossing. See the N6ZQ flight status page for this flight to view local times or setup timezone preferences in your user account.

Time Position Orientation Groundspeed Altitude Reporting Facility
EST Latitude Longitude Course Direction KTS MPH feet Rate Location/Type
08:46AM 30.0130 -82.3106 55° Northeast  Level Estimated
08:49AM 30.1219 -82.5347 55° Northeast 188 216 3,000  Level Jacksonville Center
08:49AM 30.0989 -82.5300 170° South 154 177 3,000  Level Jacksonville Center
08:50AM 30.0803 -82.5206 156° South 169 194 3,000 60 Level Jacksonville Center
08:50AM 30.0614 -82.5133 162° South 154 177 3,100  Climbing Jacksonville Center
08:51AM 30.0447 -82.4992 144° Southeast 159 183 3,000  Descending Jacksonville Center
08:51AM 30.0258 -82.4919 162° South 147 169 3,100  Climbing Jacksonville Center
08:52AM 30.0092 -82.4775 143° Southeast 149 171 3,000  Descending Jacksonville Center
08:52AM 29.9881 -82.4681 159° South 148 170 3,100  Climbing Jacksonville Center
08:53AM 29.9736 -82.4561 144° Southeast 149 171 3,000  Descending Jacksonville Center
08:53AM 29.9608 -82.4514 162° South 148 170 3,100  Climbing Jacksonville Center
08:54AM 29.9400 -82.4275 135° Southeast 149 171 3,000  Descending Jacksonville Center
08:54AM 29.9253 -82.4206 158° South 147 169 3,100  Climbing Jacksonville Center
08:55AM 29.9086 -82.3989 132° Southeast 149 171 3,000  Descending Jacksonville Center
08:55AM 29.8939 -82.3894 151° Southeast 149 171 3,100  Climbing Jacksonville Center
08:56AM 29.8772 -82.3681 132° Southeast 149 171 3,000  Descending Jacksonville Center
08:56AM 29.8583 -82.3561 151° Southeast 147 169 3,100  Climbing Jacksonville Center
08:57AM 29.8436 -82.3419 140° Southeast 149 171 3,000  Descending Jacksonville Center
08:57AM 29.8269 -82.3275 143° Southeast 147 169 3,100  Climbing Jacksonville Center
08:58AM 29.8081 -82.3108 143° Southeast 149 171 3,000  Descending Jacksonville Center
08:58AM 29.7933 -82.2992 145° Southeast 149 171 3,100 60 Climbing Jacksonville Center
08:59AM 29.7639 -82.2728 142° Southeast 147 169 3,100  Level Jacksonville Center
09:00AM 29.7344 -82.2394 135° Southeast 148 170 3,100  Level Jacksonville Center
09:01AM 29.7092 -82.2014 127° Southeast 149 171 3,100 -540 Level Jacksonville Center
09:02AM 29.7425 -82.1583 48° Northeast 193 222 2,100 -600 Descending Jacksonville Center
09:03AM 29.7756 -82.1197 45° Northeast 173 199 1,900 -360 Descending Jacksonville Center
09:04AM 29.8006 -82.0931 43° Northeast 100 115 1,400 -600 Descending Jacksonville Center
09:05AM 29.8192 -82.0739 42° Northeast 83 96 700 -420 Descending Jacksonville Center
09:07AM 29.8358 -82.0569 41° Northeast 80 92 500 -120 Descending Jacksonville Center
09:07AM 29.8358 -82.0569 311° West 80 92 500  Level Jacksonville Center
09:09AM 29.8358 -82.0569 311° West 80 92 500  Level Jacksonville Center
09:11AM 29.8358 -82.0569 311° West 80 92 500  Level Jacksonville Center